sensor_id;sensor_type;location;lat;lon;timestamp;P1;durP1;ratioP1;P2;durP2;ratioP2
15271;SDS011;7737;51.578;7.268;2022-10-13T00:01:37;13.25;;;8.07;;
15271;SDS011;7737;51.578;7.268;2022-10-13T00:04:03;11.00;;;8.05;;
15271;SDS011;7737;51.578;7.268;2022-10-13T00:06:30;10.60;;;8.25;;
15271;SDS011;7737;51.578;7.268;2022-10-13T00:08:57;10.77;;;8.07;;
15271;SDS011;7737;51.578;7.268;2022-10-13T00:11:25;10.13;;;7.80;;
15271;SDS011;7737;51.578;7.268;2022-10-13T00:13:54;10.95;;;7.93;;
15271;SDS011;7737;51.578;7.268;2022-10-13T00:16:22;11.35;;;8.05;;
15271;SDS011;7737;51.578;7.268;2022-10-13T00:18:49;9.80;;;8.20;;
15271;SDS011;7737;51.578;7.268;2022-10-13T00:21:17;10.20;;;8.07;;
15271;SDS011;7737;51.578;7.268;2022-10-13T00:23:45;11.60;;;8.60;;
15271;SDS011;7737;51.578;7.268;2022-10-13T00:26:12;10.30;;;8.30;;
15271;SDS011;7737;51.578;7.268;2022-10-13T00:28:41;10.32;;;8.40;;
15271;SDS011;7737;51.578;7.268;2022-10-13T00:31:14;9.40;;;7.78;;
15271;SDS011;7737;51.578;7.268;2022-10-13T00:33:42;9.57;;;7.80;;
15271;SDS011;7737;51.578;7.268;2022-10-13T00:36:08;15.43;;;8.27;;
15271;SDS011;7737;51.578;7.268;2022-10-13T00:38:35;13.60;;;8.57;;
15271;SDS011;7737;51.578;7.268;2022-10-13T00:41:02;10.65;;;8.65;;
15271;SDS011;7737;51.578;7.268;2022-10-13T00:46:21;10.23;;;8.10;;
15271;SDS011;7737;51.578;7.268;2022-10-13T00:48:49;11.25;;;7.90;;
15271;SDS011;7737;51.578;7.268;2022-10-13T00:51:18;13.88;;;7.75;;
15271;SDS011;7737;51.578;7.268;2022-10-13T00:53:47;9.63;;;8.00;;
15271;SDS011;7737;51.578;7.268;2022-10-13T00:56:15;7.43;;;6.72;;
15271;SDS011;7737;51.578;7.268;2022-10-13T00:58:44;8.65;;;7.53;;
15271;SDS011;7737;51.578;7.268;2022-10-13T01:01:15;8.65;;;7.18;;
15271;SDS011;7737;51.578;7.268;2022-10-13T01:03:41;8.88;;;7.43;;
15271;SDS011;7737;51.578;7.268;2022-10-13T01:06:08;11.98;;;8.00;;
15271;SDS011;7737;51.578;7.268;2022-10-13T01:08:36;12.43;;;7.70;;
15271;SDS011;7737;51.578;7.268;2022-10-13T01:11:07;9.75;;;7.75;;
15271;SDS011;7737;51.578;7.268;2022-10-13T01:13:47;9.32;;;7.30;;
15271;SDS011;7737;51.578;7.268;2022-10-13T01:16:24;9.15;;;7.47;;
15271;SDS011;7737;51.578;7.268;2022-10-13T01:19:01;12.32;;;8.05;;
15271;SDS011;7737;51.578;7.268;2022-10-13T01:21:36;11.55;;;7.93;;
15271;SDS011;7737;51.578;7.268;2022-10-13T01:27:02;9.25;;;7.03;;
15271;SDS011;7737;51.578;7.268;2022-10-13T01:29:55;13.05;;;8.73;;
15271;SDS011;7737;51.578;7.268;2022-10-13T01:32:35;11.40;;;7.95;;
15271;SDS011;7737;51.578;7.268;2022-10-13T01:35:30;9.77;;;6.75;;
15271;SDS011;7737;51.578;7.268;2022-10-13T01:38:06;9.63;;;6.70;;
15271;SDS011;7737;51.578;7.268;2022-10-13T01:40:39;9.50;;;7.38;;
15271;SDS011;7737;51.578;7.268;2022-10-13T01:43:09;8.18;;;6.85;;
15271;SDS011;7737;51.578;7.268;2022-10-13T01:45:43;10.65;;;6.55;;
15271;SDS011;7737;51.578;7.268;2022-10-13T01:48:15;12.43;;;6.88;;
15271;SDS011;7737;51.578;7.268;2022-10-13T01:50:44;10.05;;;6.90;;
15271;SDS011;7737;51.578;7.268;2022-10-13T01:53:11;9.45;;;6.80;;
15271;SDS011;7737;51.578;7.268;2022-10-13T01:55:48;10.10;;;6.97;;
15271;SDS011;7737;51.578;7.268;2022-10-13T01:58:16;9.85;;;6.90;;
15271;SDS011;7737;51.578;7.268;2022-10-13T02:00:47;11.05;;;7.00;;
15271;SDS011;7737;51.578;7.268;2022-10-13T02:03:26;12.55;;;8.27;;
15271;SDS011;7737;51.578;7.268;2022-10-13T02:06:08;11.25;;;7.43;;
15271;SDS011;7737;51.578;7.268;2022-10-13T02:08:42;8.32;;;7.15;;
15271;SDS011;7737;51.578;7.268;2022-10-13T02:11:16;13.10;;;7.30;;
15271;SDS011;7737;51.578;7.268;2022-10-13T02:13:56;8.23;;;7.40;;
15271;SDS011;7737;51.578;7.268;2022-10-13T02:16:29;8.95;;;7.30;;
15271;SDS011;7737;51.578;7.268;2022-10-13T02:18:59;10.55;;;7.25;;
15271;SDS011;7737;51.578;7.268;2022-10-13T02:21:28;10.65;;;8.02;;
15271;SDS011;7737;51.578;7.268;2022-10-13T02:23:56;13.40;;;8.68;;
15271;SDS011;7737;51.578;7.268;2022-10-13T02:26:23;11.20;;;8.15;;
15271;SDS011;7737;51.578;7.268;2022-10-13T02:28:50;11.25;;;8.52;;
15271;SDS011;7737;51.578;7.268;2022-10-13T02:31:16;9.57;;;8.48;;
15271;SDS011;7737;51.578;7.268;2022-10-13T02:33:44;11.48;;;9.15;;
15271;SDS011;7737;51.578;7.268;2022-10-13T02:36:11;13.10;;;8.15;;
15271;SDS011;7737;51.578;7.268;2022-10-13T02:38:37;13.98;;;9.18;;
15271;SDS011;7737;51.578;7.268;2022-10-13T02:41:04;12.07;;;9.30;;
15271;SDS011;7737;51.578;7.268;2022-10-13T02:43:31;13.13;;;9.48;;
15271;SDS011;7737;51.578;7.268;2022-10-13T02:45:57;13.98;;;9.27;;
15271;SDS011;7737;51.578;7.268;2022-10-13T02:48:24;10.18;;;8.63;;
15271;SDS011;7737;51.578;7.268;2022-10-13T02:50:52;9.45;;;8.13;;
15271;SDS011;7737;51.578;7.268;2022-10-13T02:53:18;11.15;;;8.90;;
15271;SDS011;7737;51.578;7.268;2022-10-13T02:55:45;13.57;;;9.70;;
15271;SDS011;7737;51.578;7.268;2022-10-13T02:58:12;11.55;;;9.25;;
15271;SDS011;7737;51.578;7.268;2022-10-13T03:00:38;11.52;;;10.27;;
15271;SDS011;7737;51.578;7.268;2022-10-13T03:03:05;11.43;;;9.25;;
15271;SDS011;7737;51.578;7.268;2022-10-13T03:05:31;11.32;;;9.88;;
15271;SDS011;7737;51.578;7.268;2022-10-13T03:07:59;10.63;;;9.07;;
15271;SDS011;7737;51.578;7.268;2022-10-13T03:10:26;13.77;;;9.23;;
15271;SDS011;7737;51.578;7.268;2022-10-13T03:12:53;9.98;;;8.73;;
15271;SDS011;7737;51.578;7.268;2022-10-13T03:15:20;12.30;;;9.23;;
15271;SDS011;7737;51.578;7.268;2022-10-13T03:17:46;13.18;;;9.60;;
15271;SDS011;7737;51.578;7.268;2022-10-13T03:20:13;13.35;;;9.85;;
15271;SDS011;7737;51.578;7.268;2022-10-13T03:22:40;11.68;;;9.85;;
15271;SDS011;7737;51.578;7.268;2022-10-13T03:25:08;13.93;;;10.20;;
15271;SDS011;7737;51.578;7.268;2022-10-13T03:27:34;11.70;;;9.00;;
15271;SDS011;7737;51.578;7.268;2022-10-13T03:30:01;13.05;;;9.73;;
15271;SDS011;7737;51.578;7.268;2022-10-13T03:32:28;11.07;;;9.50;;
15271;SDS011;7737;51.578;7.268;2022-10-13T03:34:55;11.32;;;10.05;;
15271;SDS011;7737;51.578;7.268;2022-10-13T03:37:21;13.75;;;10.77;;
15271;SDS011;7737;51.578;7.268;2022-10-13T03:39:48;14.52;;;9.80;;
15271;SDS011;7737;51.578;7.268;2022-10-13T03:42:16;14.45;;;9.98;;
15271;SDS011;7737;51.578;7.268;2022-10-13T03:44:42;13.88;;;10.35;;
15271;SDS011;7737;51.578;7.268;2022-10-13T03:47:09;15.13;;;11.10;;
15271;SDS011;7737;51.578;7.268;2022-10-13T03:49:36;12.75;;;10.75;;
15271;SDS011;7737;51.578;7.268;2022-10-13T03:52:03;12.43;;;9.95;;
15271;SDS011;7737;51.578;7.268;2022-10-13T03:54:29;12.38;;;11.00;;
15271;SDS011;7737;51.578;7.268;2022-10-13T03:56:56;13.52;;;10.82;;
15271;SDS011;7737;51.578;7.268;2022-10-13T03:59:24;12.68;;;10.85;;
15271;SDS011;7737;51.578;7.268;2022-10-13T04:01:51;12.85;;;9.50;;
15271;SDS011;7737;51.578;7.268;2022-10-13T04:04:18;13.90;;;9.57;;
15271;SDS011;7737;51.578;7.268;2022-10-13T04:06:44;11.73;;;9.32;;
15271;SDS011;7737;51.578;7.268;2022-10-13T04:09:10;13.32;;;10.20;;
15271;SDS011;7737;51.578;7.268;2022-10-13T04:11:37;12.75;;;10.30;;
15271;SDS011;7737;51.578;7.268;2022-10-13T04:14:03;12.50;;;10.05;;
15271;SDS011;7737;51.578;7.268;2022-10-13T04:16:31;15.48;;;10.32;;
15271;SDS011;7737;51.578;7.268;2022-10-13T04:18:58;12.40;;;9.10;;
15271;SDS011;7737;51.578;7.268;2022-10-13T04:21:26;12.48;;;10.02;;
15271;SDS011;7737;51.578;7.268;2022-10-13T04:23:54;15.15;;;9.80;;
15271;SDS011;7737;51.578;7.268;2022-10-13T04:26:22;15.85;;;9.88;;
15271;SDS011;7737;51.578;7.268;2022-10-13T04:28:50;12.70;;;9.57;;
15271;SDS011;7737;51.578;7.268;2022-10-13T04:31:18;10.95;;;9.77;;
15271;SDS011;7737;51.578;7.268;2022-10-13T04:33:47;13.93;;;9.85;;
15271;SDS011;7737;51.578;7.268;2022-10-13T04:36:14;13.02;;;10.70;;
15271;SDS011;7737;51.578;7.268;2022-10-13T04:38:42;14.27;;;9.43;;
15271;SDS011;7737;51.578;7.268;2022-10-13T04:41:12;13.20;;;9.63;;
15271;SDS011;7737;51.578;7.268;2022-10-13T04:43:40;13.43;;;10.43;;
15271;SDS011;7737;51.578;7.268;2022-10-13T04:46:07;18.98;;;10.88;;
15271;SDS011;7737;51.578;7.268;2022-10-13T04:48:34;15.75;;;11.15;;
15271;SDS011;7737;51.578;7.268;2022-10-13T04:51:03;14.73;;;10.23;;
15271;SDS011;7737;51.578;7.268;2022-10-13T04:53:31;13.75;;;10.70;;
15271;SDS011;7737;51.578;7.268;2022-10-13T04:56:01;14.07;;;9.75;;
15271;SDS011;7737;51.578;7.268;2022-10-13T04:58:29;14.00;;;9.90;;
15271;SDS011;7737;51.578;7.268;2022-10-13T05:00:56;12.63;;;10.70;;
15271;SDS011;7737;51.578;7.268;2022-10-13T05:03:23;12.13;;;10.13;;
15271;SDS011;7737;51.578;7.268;2022-10-13T05:05:50;11.90;;;9.98;;
15271;SDS011;7737;51.578;7.268;2022-10-13T05:08:19;14.40;;;11.50;;
15271;SDS011;7737;51.578;7.268;2022-10-13T05:10:51;14.98;;;10.63;;
15271;SDS011;7737;51.578;7.268;2022-10-13T05:13:18;15.93;;;11.18;;
15271;SDS011;7737;51.578;7.268;2022-10-13T05:15:45;13.60;;;10.82;;
15271;SDS011;7737;51.578;7.268;2022-10-13T05:18:12;13.18;;;10.48;;
15271;SDS011;7737;51.578;7.268;2022-10-13T05:20:38;13.15;;;10.68;;
15271;SDS011;7737;51.578;7.268;2022-10-13T05:23:05;14.98;;;10.85;;
15271;SDS011;7737;51.578;7.268;2022-10-13T05:25:34;12.23;;;10.30;;
15271;SDS011;7737;51.578;7.268;2022-10-13T05:28:01;14.27;;;10.45;;
15271;SDS011;7737;51.578;7.268;2022-10-13T05:30:28;13.98;;;11.27;;
15271;SDS011;7737;51.578;7.268;2022-10-13T05:32:55;17.65;;;11.68;;
15271;SDS011;7737;51.578;7.268;2022-10-13T05:35:22;17.50;;;11.57;;
15271;SDS011;7737;51.578;7.268;2022-10-13T05:37:48;14.43;;;10.45;;
15271;SDS011;7737;51.578;7.268;2022-10-13T05:40:15;15.25;;;10.98;;
15271;SDS011;7737;51.578;7.268;2022-10-13T05:42:43;13.82;;;10.35;;
15271;SDS011;7737;51.578;7.268;2022-10-13T05:45:09;13.82;;;10.40;;
15271;SDS011;7737;51.578;7.268;2022-10-13T05:47:36;14.38;;;10.52;;
15271;SDS011;7737;51.578;7.268;2022-10-13T05:50:03;15.43;;;10.98;;
15271;SDS011;7737;51.578;7.268;2022-10-13T05:52:30;15.38;;;11.07;;
15271;SDS011;7737;51.578;7.268;2022-10-13T05:54:59;15.32;;;10.23;;
15271;SDS011;7737;51.578;7.268;2022-10-13T05:57:29;13.40;;;10.05;;
15271;SDS011;7737;51.578;7.268;2022-10-13T05:59:59;13.82;;;10.18;;
15271;SDS011;7737;51.578;7.268;2022-10-13T06:02:30;14.43;;;10.85;;
15271;SDS011;7737;51.578;7.268;2022-10-13T06:05:02;12.27;;;9.50;;
15271;SDS011;7737;51.578;7.268;2022-10-13T06:07:32;13.18;;;9.85;;
15271;SDS011;7737;51.578;7.268;2022-10-13T06:09:59;14.80;;;9.55;;
15271;SDS011;7737;51.578;7.268;2022-10-13T06:12:26;13.30;;;9.68;;
15271;SDS011;7737;51.578;7.268;2022-10-13T06:14:53;17.00;;;9.93;;
15271;SDS011;7737;51.578;7.268;2022-10-13T06:17:21;16.23;;;10.70;;
15271;SDS011;7737;51.578;7.268;2022-10-13T06:19:47;14.30;;;10.80;;
15271;SDS011;7737;51.578;7.268;2022-10-13T06:22:14;14.82;;;10.07;;
15271;SDS011;7737;51.578;7.268;2022-10-13T06:24:40;14.18;;;10.57;;
15271;SDS011;7737;51.578;7.268;2022-10-13T06:27:07;13.10;;;10.80;;
15271;SDS011;7737;51.578;7.268;2022-10-13T06:29:33;14.75;;;10.30;;
15271;SDS011;7737;51.578;7.268;2022-10-13T06:32:00;14.18;;;9.80;;
15271;SDS011;7737;51.578;7.268;2022-10-13T06:34:28;14.75;;;10.65;;
15271;SDS011;7737;51.578;7.268;2022-10-13T06:36:54;15.32;;;10.23;;
15271;SDS011;7737;51.578;7.268;2022-10-13T06:39:21;14.10;;;9.63;;
15271;SDS011;7737;51.578;7.268;2022-10-13T06:41:48;13.38;;;10.00;;
15271;SDS011;7737;51.578;7.268;2022-10-13T06:44:16;14.45;;;10.05;;
15271;SDS011;7737;51.578;7.268;2022-10-13T06:46:42;13.18;;;11.18;;
15271;SDS011;7737;51.578;7.268;2022-10-13T06:49:09;15.20;;;10.52;;
15271;SDS011;7737;51.578;7.268;2022-10-13T06:51:37;16.90;;;10.75;;
15271;SDS011;7737;51.578;7.268;2022-10-13T06:54:03;15.88;;;9.80;;
15271;SDS011;7737;51.578;7.268;2022-10-13T06:56:30;17.48;;;10.77;;
15271;SDS011;7737;51.578;7.268;2022-10-13T06:58:56;16.67;;;11.13;;
15271;SDS011;7737;51.578;7.268;2022-10-13T07:01:23;17.58;;;11.00;;
15271;SDS011;7737;51.578;7.268;2022-10-13T07:03:49;16.88;;;10.93;;
15271;SDS011;7737;51.578;7.268;2022-10-13T07:06:16;16.83;;;11.00;;
15271;SDS011;7737;51.578;7.268;2022-10-13T07:08:45;14.05;;;10.10;;
15271;SDS011;7737;51.578;7.268;2022-10-13T07:11:12;14.88;;;10.43;;
15271;SDS011;7737;51.578;7.268;2022-10-13T07:13:40;14.77;;;11.60;;
15271;SDS011;7737;51.578;7.268;2022-10-13T07:16:07;16.38;;;10.98;;
15271;SDS011;7737;51.578;7.268;2022-10-13T07:18:35;16.15;;;11.35;;
15271;SDS011;7737;51.578;7.268;2022-10-13T07:21:02;13.63;;;10.77;;
15271;SDS011;7737;51.578;7.268;2022-10-13T07:23:29;15.18;;;11.18;;
15271;SDS011;7737;51.578;7.268;2022-10-13T07:25:57;15.38;;;11.15;;
15271;SDS011;7737;51.578;7.268;2022-10-13T07:28:23;15.77;;;10.77;;
15271;SDS011;7737;51.578;7.268;2022-10-13T07:30:50;15.63;;;11.27;;
15271;SDS011;7737;51.578;7.268;2022-10-13T07:33:17;13.80;;;10.43;;
15271;SDS011;7737;51.578;7.268;2022-10-13T07:35:44;15.43;;;11.18;;
15271;SDS011;7737;51.578;7.268;2022-10-13T07:38:11;16.60;;;11.18;;
15271;SDS011;7737;51.578;7.268;2022-10-13T07:40:38;20.48;;;11.00;;
15271;SDS011;7737;51.578;7.268;2022-10-13T07:43:05;13.38;;;11.18;;
15271;SDS011;7737;51.578;7.268;2022-10-13T07:45:32;13.18;;;9.85;;
15271;SDS011;7737;51.578;7.268;2022-10-13T07:47:58;12.80;;;10.48;;
15271;SDS011;7737;51.578;7.268;2022-10-13T07:50:25;11.75;;;10.25;;
15271;SDS011;7737;51.578;7.268;2022-10-13T07:52:51;15.30;;;9.23;;
15271;SDS011;7737;51.578;7.268;2022-10-13T07:55:18;13.48;;;10.00;;
15271;SDS011;7737;51.578;7.268;2022-10-13T07:57:44;12.10;;;9.15;;
15271;SDS011;7737;51.578;7.268;2022-10-13T08:00:13;12.63;;;8.30;;
15271;SDS011;7737;51.578;7.268;2022-10-13T08:02:39;13.05;;;8.73;;
15271;SDS011;7737;51.578;7.268;2022-10-13T08:05:06;13.57;;;8.43;;
15271;SDS011;7737;51.578;7.268;2022-10-13T08:07:33;12.90;;;8.25;;
15271;SDS011;7737;51.578;7.268;2022-10-13T08:10:01;10.68;;;8.10;;
15271;SDS011;7737;51.578;7.268;2022-10-13T08:12:28;12.48;;;8.05;;
15271;SDS011;7737;51.578;7.268;2022-10-13T08:14:55;11.73;;;9.07;;
15271;SDS011;7737;51.578;7.268;2022-10-13T08:17:22;12.40;;;8.63;;
15271;SDS011;7737;51.578;7.268;2022-10-13T08:19:49;11.77;;;8.30;;
15271;SDS011;7737;51.578;7.268;2022-10-13T08:22:16;10.70;;;7.70;;
15271;SDS011;7737;51.578;7.268;2022-10-13T08:24:42;14.20;;;9.10;;
15271;SDS011;7737;51.578;7.268;2022-10-13T08:27:09;12.25;;;7.95;;
15271;SDS011;7737;51.578;7.268;2022-10-13T08:29:36;14.02;;;8.23;;
15271;SDS011;7737;51.578;7.268;2022-10-13T08:32:03;9.25;;;7.63;;
15271;SDS011;7737;51.578;7.268;2022-10-13T08:34:31;13.77;;;8.27;;
15271;SDS011;7737;51.578;7.268;2022-10-13T08:36:58;10.85;;;7.78;;
15271;SDS011;7737;51.578;7.268;2022-10-13T08:39:24;9.55;;;7.60;;
15271;SDS011;7737;51.578;7.268;2022-10-13T08:41:51;10.65;;;7.65;;
15271;SDS011;7737;51.578;7.268;2022-10-13T08:44:21;11.88;;;7.80;;
15271;SDS011;7737;51.578;7.268;2022-10-13T08:46:53;11.35;;;8.13;;
15271;SDS011;7737;51.578;7.268;2022-10-13T08:49:26;11.50;;;7.55;;
15271;SDS011;7737;51.578;7.268;2022-10-13T08:51:54;12.90;;;7.60;;
15271;SDS011;7737;51.578;7.268;2022-10-13T08:54:23;9.18;;;7.35;;
15271;SDS011;7737;51.578;7.268;2022-10-13T08:56:51;14.75;;;7.97;;
15271;SDS011;7737;51.578;7.268;2022-10-13T08:59:18;9.63;;;7.70;;
15271;SDS011;7737;51.578;7.268;2022-10-13T09:01:45;8.48;;;7.47;;
15271;SDS011;7737;51.578;7.268;2022-10-13T09:04:20;12.05;;;8.10;;
15271;SDS011;7737;51.578;7.268;2022-10-13T09:06:55;10.73;;;8.07;;
15271;SDS011;7737;51.578;7.268;2022-10-13T09:09:27;12.43;;;7.68;;
15271;SDS011;7737;51.578;7.268;2022-10-13T09:11:54;15.07;;;7.72;;
15271;SDS011;7737;51.578;7.268;2022-10-13T09:14:21;9.15;;;7.07;;
15271;SDS011;7737;51.578;7.268;2022-10-13T09:16:49;8.40;;;7.07;;
15271;SDS011;7737;51.578;7.268;2022-10-13T09:19:22;11.35;;;7.82;;
15271;SDS011;7737;51.578;7.268;2022-10-13T09:21:52;10.35;;;7.38;;
15271;SDS011;7737;51.578;7.268;2022-10-13T09:24:22;9.52;;;7.55;;
15271;SDS011;7737;51.578;7.268;2022-10-13T09:26:50;9.75;;;7.47;;
15271;SDS011;7737;51.578;7.268;2022-10-13T09:29:29;10.57;;;8.27;;
15271;SDS011;7737;51.578;7.268;2022-10-13T09:32:06;10.75;;;7.60;;
15271;SDS011;7737;51.578;7.268;2022-10-13T09:34:38;13.98;;;8.23;;
15271;SDS011;7737;51.578;7.268;2022-10-13T09:37:15;13.02;;;8.02;;
15271;SDS011;7737;51.578;7.268;2022-10-13T09:39:43;11.63;;;7.53;;
15271;SDS011;7737;51.578;7.268;2022-10-13T09:42:18;12.88;;;7.85;;
15271;SDS011;7737;51.578;7.268;2022-10-13T09:44:47;11.15;;;7.45;;
15271;SDS011;7737;51.578;7.268;2022-10-13T09:47:20;10.43;;;7.18;;
15271;SDS011;7737;51.578;7.268;2022-10-13T09:49:56;10.75;;;7.72;;
15271;SDS011;7737;51.578;7.268;2022-10-13T09:52:27;15.77;;;7.78;;
15271;SDS011;7737;51.578;7.268;2022-10-13T09:54:55;11.35;;;8.13;;
15271;SDS011;7737;51.578;7.268;2022-10-13T09:57:25;10.00;;;7.18;;
15271;SDS011;7737;51.578;7.268;2022-10-13T10:00:00;11.60;;;8.20;;
15271;SDS011;7737;51.578;7.268;2022-10-13T10:02:31;11.80;;;7.55;;
15271;SDS011;7737;51.578;7.268;2022-10-13T10:05:03;10.25;;;6.95;;
15271;SDS011;7737;51.578;7.268;2022-10-13T10:07:32;10.63;;;7.40;;
15271;SDS011;7737;51.578;7.268;2022-10-13T10:10:00;9.45;;;7.25;;
15271;SDS011;7737;51.578;7.268;2022-10-13T10:12:30;9.98;;;7.05;;
15271;SDS011;7737;51.578;7.268;2022-10-13T10:15:01;10.98;;;7.05;;
15271;SDS011;7737;51.578;7.268;2022-10-13T10:17:29;11.00;;;6.57;;
15271;SDS011;7737;51.578;7.268;2022-10-13T10:22:57;10.82;;;7.55;;
15271;SDS011;7737;51.578;7.268;2022-10-13T10:25:31;9.43;;;6.28;;
15271;SDS011;7737;51.578;7.268;2022-10-13T10:28:08;9.23;;;6.25;;
15271;SDS011;7737;51.578;7.268;2022-10-13T10:30:46;12.90;;;6.40;;
15271;SDS011;7737;51.578;7.268;2022-10-13T10:33:17;8.70;;;6.78;;
15271;SDS011;7737;51.578;7.268;2022-10-13T10:35:47;10.82;;;6.18;;
15271;SDS011;7737;51.578;7.268;2022-10-13T10:38:24;8.70;;;6.40;;
15271;SDS011;7737;51.578;7.268;2022-10-13T10:41:02;10.18;;;6.03;;
15271;SDS011;7737;51.578;7.268;2022-10-13T10:43:45;8.13;;;5.53;;
15271;SDS011;7737;51.578;7.268;2022-10-13T10:46:17;8.57;;;6.45;;
15271;SDS011;7737;51.578;7.268;2022-10-13T10:48:47;9.82;;;6.40;;
15271;SDS011;7737;51.578;7.268;2022-10-13T10:51:18;8.75;;;5.70;;
15271;SDS011;7737;51.578;7.268;2022-10-13T10:53:51;9.13;;;6.10;;
15271;SDS011;7737;51.578;7.268;2022-10-13T10:56:29;10.63;;;6.10;;
15271;SDS011;7737;51.578;7.268;2022-10-13T10:59:04;9.05;;;6.63;;
15271;SDS011;7737;51.578;7.268;2022-10-13T11:01:58;9.85;;;6.60;;
15271;SDS011;7737;51.578;7.268;2022-10-13T11:04:40;8.25;;;5.93;;
15271;SDS011;7737;51.578;7.268;2022-10-13T11:07:09;8.00;;;6.00;;
15271;SDS011;7737;51.578;7.268;2022-10-13T11:12:47;11.45;;;6.00;;
15271;SDS011;7737;51.578;7.268;2022-10-13T11:15:29;8.95;;;5.72;;
15271;SDS011;7737;51.578;7.268;2022-10-13T11:21:06;7.65;;;4.88;;
15271;SDS011;7737;51.578;7.268;2022-10-13T11:23:33;11.80;;;5.43;;
15271;SDS011;7737;51.578;7.268;2022-10-13T11:26:25;7.38;;;4.90;;
15271;SDS011;7737;51.578;7.268;2022-10-13T11:28:55;7.57;;;5.18;;
15271;SDS011;7737;51.578;7.268;2022-10-13T11:31:23;7.45;;;5.63;;
15271;SDS011;7737;51.578;7.268;2022-10-13T11:34:19;6.00;;;5.00;;
15271;SDS011;7737;51.578;7.268;2022-10-13T11:36:54;6.82;;;4.70;;
15271;SDS011;7737;51.578;7.268;2022-10-13T11:42:36;8.63;;;4.70;;
15271;SDS011;7737;51.578;7.268;2022-10-13T11:45:25;9.25;;;5.32;;
15271;SDS011;7737;51.578;7.268;2022-10-13T11:48:15;7.53;;;4.60;;
15271;SDS011;7737;51.578;7.268;2022-10-13T11:51:03;7.93;;;4.25;;
15271;SDS011;7737;51.578;7.268;2022-10-13T11:53:40;5.75;;;4.18;;
15271;SDS011;7737;51.578;7.268;2022-10-13T11:56:18;7.43;;;4.82;;
15271;SDS011;7737;51.578;7.268;2022-10-13T11:58:47;7.60;;;4.55;;
15271;SDS011;7737;51.578;7.268;2022-10-13T12:01:14;6.80;;;4.85;;
15271;SDS011;7737;51.578;7.268;2022-10-13T12:03:43;7.40;;;4.90;;
15271;SDS011;7737;51.578;7.268;2022-10-13T12:06:22;9.05;;;4.53;;
15271;SDS011;7737;51.578;7.268;2022-10-13T12:08:58;9.02;;;5.38;;
15271;SDS011;7737;51.578;7.268;2022-10-13T12:11:28;8.30;;;4.50;;
15271;SDS011;7737;51.578;7.268;2022-10-13T12:13:58;7.65;;;4.53;;
15271;SDS011;7737;51.578;7.268;2022-10-13T12:16:26;8.10;;;4.10;;
15271;SDS011;7737;51.578;7.268;2022-10-13T12:18:54;7.95;;;4.45;;
15271;SDS011;7737;51.578;7.268;2022-10-13T12:21:32;7.25;;;4.53;;
15271;SDS011;7737;51.578;7.268;2022-10-13T12:24:04;8.27;;;5.05;;
15271;SDS011;7737;51.578;7.268;2022-10-13T12:26:33;8.18;;;4.47;;
15271;SDS011;7737;51.578;7.268;2022-10-13T12:29:01;6.60;;;4.90;;
15271;SDS011;7737;51.578;7.268;2022-10-13T12:31:37;6.53;;;4.25;;
15271;SDS011;7737;51.578;7.268;2022-10-13T12:34:12;9.82;;;4.65;;
15271;SDS011;7737;51.578;7.268;2022-10-13T12:36:43;6.63;;;4.50;;
15271;SDS011;7737;51.578;7.268;2022-10-13T12:39:12;7.38;;;4.78;;
15271;SDS011;7737;51.578;7.268;2022-10-13T12:41:41;7.82;;;4.60;;
15271;SDS011;7737;51.578;7.268;2022-10-13T12:44:12;7.07;;;4.47;;
15271;SDS011;7737;51.578;7.268;2022-10-13T12:46:42;6.88;;;4.70;;
15271;SDS011;7737;51.578;7.268;2022-10-13T12:49:12;8.60;;;4.53;;
15271;SDS011;7737;51.578;7.268;2022-10-13T12:51:40;8.20;;;5.10;;
15271;SDS011;7737;51.578;7.268;2022-10-13T12:54:08;6.30;;;5.13;;
15271;SDS011;7737;51.578;7.268;2022-10-13T12:56:44;9.85;;;5.25;;
15271;SDS011;7737;51.578;7.268;2022-10-13T12:59:14;8.35;;;5.28;;
15271;SDS011;7737;51.578;7.268;2022-10-13T13:01:41;12.40;;;5.10;;
15271;SDS011;7737;51.578;7.268;2022-10-13T13:04:15;8.40;;;5.38;;
15271;SDS011;7737;51.578;7.268;2022-10-13T13:06:51;7.68;;;5.00;;
15271;SDS011;7737;51.578;7.268;2022-10-13T13:09:20;9.60;;;5.63;;
15271;SDS011;7737;51.578;7.268;2022-10-13T13:12:02;8.48;;;5.47;;
15271;SDS011;7737;51.578;7.268;2022-10-13T13:14:48;9.35;;;6.00;;
15271;SDS011;7737;51.578;7.268;2022-10-13T13:17:26;9.80;;;5.95;;
15271;SDS011;7737;51.578;7.268;2022-10-13T13:19:54;8.68;;;6.63;;
15271;SDS011;7737;51.578;7.268;2022-10-13T13:22:22;12.38;;;7.45;;
15271;SDS011;7737;51.578;7.268;2022-10-13T13:24:49;12.20;;;7.97;;
15271;SDS011;7737;51.578;7.268;2022-10-13T13:27:16;12.43;;;8.32;;
15271;SDS011;7737;51.578;7.268;2022-10-13T13:29:45;8.73;;;7.32;;
15271;SDS011;7737;51.578;7.268;2022-10-13T13:32:14;10.85;;;7.78;;
15271;SDS011;7737;51.578;7.268;2022-10-13T13:34:42;10.13;;;7.95;;
15271;SDS011;7737;51.578;7.268;2022-10-13T13:37:13;9.48;;;7.25;;
15271;SDS011;7737;51.578;7.268;2022-10-13T13:39:48;12.82;;;7.32;;
15271;SDS011;7737;51.578;7.268;2022-10-13T13:42:14;13.10;;;8.98;;
15271;SDS011;7737;51.578;7.268;2022-10-13T13:44:41;12.43;;;8.30;;
15271;SDS011;7737;51.578;7.268;2022-10-13T13:47:11;9.68;;;7.90;;
15271;SDS011;7737;51.578;7.268;2022-10-13T13:49:41;15.13;;;10.27;;
15271;SDS011;7737;51.578;7.268;2022-10-13T13:52:08;11.18;;;8.00;;
15271;SDS011;7737;51.578;7.268;2022-10-13T13:54:35;10.48;;;7.65;;
15271;SDS011;7737;51.578;7.268;2022-10-13T13:57:01;10.40;;;7.45;;
15271;SDS011;7737;51.578;7.268;2022-10-13T13:59:28;9.95;;;6.95;;
15271;SDS011;7737;51.578;7.268;2022-10-13T14:01:54;13.80;;;9.90;;
15271;SDS011;7737;51.578;7.268;2022-10-13T14:04:22;9.98;;;7.90;;
15271;SDS011;7737;51.578;7.268;2022-10-13T14:06:49;10.18;;;6.63;;
15271;SDS011;7737;51.578;7.268;2022-10-13T14:09:16;9.52;;;6.95;;
15271;SDS011;7737;51.578;7.268;2022-10-13T14:11:43;9.45;;;7.20;;
15271;SDS011;7737;51.578;7.268;2022-10-13T14:14:09;10.10;;;7.25;;
15271;SDS011;7737;51.578;7.268;2022-10-13T14:16:36;10.18;;;7.43;;
15271;SDS011;7737;51.578;7.268;2022-10-13T14:19:02;12.10;;;7.40;;
15271;SDS011;7737;51.578;7.268;2022-10-13T14:21:30;10.02;;;7.55;;
15271;SDS011;7737;51.578;7.268;2022-10-13T14:23:57;10.40;;;8.13;;
15271;SDS011;7737;51.578;7.268;2022-10-13T14:26:23;9.60;;;7.38;;
15271;SDS011;7737;51.578;7.268;2022-10-13T14:28:50;11.65;;;8.18;;
15271;SDS011;7737;51.578;7.268;2022-10-13T14:31:16;10.95;;;8.02;;
15271;SDS011;7737;51.578;7.268;2022-10-13T14:33:43;10.05;;;7.93;;
15271;SDS011;7737;51.578;7.268;2022-10-13T14:36:09;9.60;;;7.45;;
15271;SDS011;7737;51.578;7.268;2022-10-13T14:38:37;14.68;;;11.43;;
15271;SDS011;7737;51.578;7.268;2022-10-13T14:41:04;13.43;;;10.25;;
15271;SDS011;7737;51.578;7.268;2022-10-13T14:43:31;10.63;;;8.65;;
15271;SDS011;7737;51.578;7.268;2022-10-13T14:45:59;10.52;;;8.20;;
15271;SDS011;7737;51.578;7.268;2022-10-13T14:48:26;12.25;;;8.38;;
15271;SDS011;7737;51.578;7.268;2022-10-13T14:50:55;11.82;;;8.07;;
15271;SDS011;7737;51.578;7.268;2022-10-13T14:53:21;10.70;;;7.55;;
15271;SDS011;7737;51.578;7.268;2022-10-13T14:55:51;9.63;;;7.13;;
15271;SDS011;7737;51.578;7.268;2022-10-13T14:58:18;11.68;;;8.13;;
15271;SDS011;7737;51.578;7.268;2022-10-13T15:00:45;9.80;;;7.75;;
15271;SDS011;7737;51.578;7.268;2022-10-13T15:03:11;10.90;;;7.35;;
15271;SDS011;7737;51.578;7.268;2022-10-13T15:05:38;8.48;;;7.57;;
15271;SDS011;7737;51.578;7.268;2022-10-13T15:08:04;10.73;;;8.93;;
15271;SDS011;7737;51.578;7.268;2022-10-13T15:10:31;10.63;;;9.07;;
15271;SDS011;7737;51.578;7.268;2022-10-13T15:12:59;11.23;;;9.25;;
15271;SDS011;7737;51.578;7.268;2022-10-13T15:15:25;11.43;;;8.43;;
15271;SDS011;7737;51.578;7.268;2022-10-13T15:17:52;13.10;;;8.30;;
15271;SDS011;7737;51.578;7.268;2022-10-13T15:20:19;7.47;;;6.72;;